sensor_id;sensor_type;location;lat;lon;timestamp;pressure;altitude;pressure_sealevel;temperature;humidity
62791;BME280;48830;53.426;10.300;2024-03-08T00:01:05;102348.44;;;22.00;69.61
62791;BME280;48830;53.426;10.300;2024-03-08T00:03:32;102347.56;;;21.99;69.70
62791;BME280;48830;53.426;10.300;2024-03-08T00:05:58;102339.75;;;21.98;69.51
62791;BME280;48830;53.426;10.300;2024-03-08T00:08:23;102337.13;;;21.98;69.42
62791;BME280;48830;53.426;10.300;2024-03-08T00:10:49;102332.75;;;21.98;69.99
62791;BME280;48830;53.426;10.300;2024-03-08T00:13:14;102337.13;;;21.98;69.50
62791;BME280;48830;53.426;10.300;2024-03-08T00:15:40;102335.38;;;21.95;69.91
62791;BME280;48830;53.426;10.300;2024-03-08T00:18:06;102331.03;;;21.93;70.02
62791;BME280;48830;53.426;10.300;2024-03-08T00:20:32;102329.28;;;21.95;69.68
62791;BME280;48830;53.426;10.300;2024-03-08T00:22:58;102327.53;;;21.94;69.65
62791;BME280;48830;53.426;10.300;2024-03-08T00:25:24;102329.28;;;21.95;69.52
62791;BME280;48830;53.426;10.300;2024-03-08T00:27:49;102332.78;;;21.94;69.61
62791;BME280;48830;53.426;10.300;2024-03-08T00:30:15;102331.03;;;21.93;69.74
62791;BME280;48830;53.426;10.300;2024-03-08T00:32:40;102333.66;;;21.93;70.06
62791;BME280;48830;53.426;10.300;2024-03-08T00:35:06;102332.81;;;21.91;69.85
62791;BME280;48830;53.426;10.300;2024-03-08T00:37:32;102328.44;;;21.90;69.63
62791;BME280;48830;53.426;10.300;2024-03-08T00:39:59;102327.59;;;21.91;69.73
62791;BME280;48830;53.426;10.300;2024-03-08T00:42:25;102332.81;;;21.89;69.89
62791;BME280;48830;53.426;10.300;2024-03-08T00:44:50;102338.06;;;21.88;69.80
62791;BME280;48830;53.426;10.300;2024-03-08T00:47:16;102335.44;;;21.88;69.85
62791;BME280;48830;53.426;10.300;2024-03-08T00:49:41;102330.22;;;21.86;69.55
62791;BME280;48830;53.426;10.300;2024-03-08T00:52:07;102324.09;;;21.89;69.84
62791;BME280;48830;53.426;10.300;2024-03-08T00:54:36;102324.09;;;21.89;69.84
62791;BME280;48830;53.426;10.300;2024-03-08T00:57:02;102316.25;;;21.87;69.79
62791;BME280;48830;53.426;10.300;2024-03-08T00:59:30;102316.25;;;21.87;69.71
62791;BME280;48830;53.426;10.300;2024-03-08T01:02:02;102314.53;;;21.86;69.73
62791;BME280;48830;53.426;10.300;2024-03-08T01:04:27;102312.75;;;21.87;69.52
62791;BME280;48830;53.426;10.300;2024-03-08T01:06:57;102308.41;;;21.86;69.86
62791;BME280;48830;53.426;10.300;2024-03-08T01:09:23;102311.88;;;21.85;69.58
62791;BME280;48830;53.426;10.300;2024-03-08T01:11:49;102302.31;;;21.84;69.90
62791;BME280;48830;53.426;10.300;2024-03-08T01:14:15;102311.91;;;21.83;69.63
62791;BME280;48830;53.426;10.300;2024-03-08T01:16:40;102296.22;;;21.82;70.06
62791;BME280;48830;53.426;10.300;2024-03-08T01:19:06;102291.88;;;21.81;69.62
62791;BME280;48830;53.426;10.300;2024-03-08T01:21:32;102285.75;;;21.82;69.41
62791;BME280;48830;53.426;10.300;2024-03-08T01:23:57;102284.91;;;21.80;69.75
62791;BME280;48830;53.426;10.300;2024-03-08T01:26:22;102280.53;;;21.79;69.78
62791;BME280;48830;53.426;10.300;2024-03-08T01:28:49;102277.91;;;21.79;69.82
62791;BME280;48830;53.426;10.300;2024-03-08T01:31:14;102270.94;;;21.78;69.78
62791;BME280;48830;53.426;10.300;2024-03-08T01:33:41;102269.19;;;21.78;69.94
62791;BME280;48830;53.426;10.300;2024-03-08T01:36:07;102260.50;;;21.76;69.82
62791;BME280;48830;53.426;10.300;2024-03-08T01:38:32;102257.00;;;21.77;69.47
62791;BME280;48830;53.426;10.300;2024-03-08T01:40:59;102257.00;;;21.75;69.59
62791;BME280;48830;53.426;10.300;2024-03-08T01:43:28;102247.44;;;21.74;69.72
62791;BME280;48830;53.426;10.300;2024-03-08T01:45:55;102246.53;;;21.75;69.61
62791;BME280;48830;53.426;10.300;2024-03-08T01:48:20;102241.31;;;21.74;69.39
62791;BME280;48830;53.426;10.300;2024-03-08T01:50:49;102240.44;;;21.73;69.80
62791;BME280;48830;53.426;10.300;2024-03-08T01:53:16;102237.81;;;21.73;69.64
62791;BME280;48830;53.426;10.300;2024-03-08T01:55:44;102230.88;;;21.71;69.40
62791;BME280;48830;53.426;10.300;2024-03-08T01:58:12;102235.19;;;21.73;69.51
62791;BME280;48830;53.426;10.300;2024-03-08T02:00:42;102225.59;;;21.72;69.34
62791;BME280;48830;53.426;10.300;2024-03-08T02:03:09;102227.38;;;21.70;69.41
62791;BME280;48830;53.426;10.300;2024-03-08T02:05:34;102223.00;;;21.71;69.85
62791;BME280;48830;53.426;10.300;2024-03-08T02:08:01;102221.25;;;21.71;69.74
62791;BME280;48830;53.426;10.300;2024-03-08T02:10:28;102227.38;;;21.70;69.78
62791;BME280;48830;53.426;10.300;2024-03-08T02:12:54;102224.75;;;21.70;69.64
62791;BME280;48830;53.426;10.300;2024-03-08T02:15:20;102223.03;;;21.69;69.46
62791;BME280;48830;53.426;10.300;2024-03-08T02:17:46;102216.03;;;21.68;69.51
62791;BME280;48830;53.426;10.300;2024-03-08T02:20:12;102214.31;;;21.69;69.65
62791;BME280;48830;53.426;10.300;2024-03-08T02:22:38;102216.94;;;21.69;69.72
62791;BME280;48830;53.426;10.300;2024-03-08T02:25:04;102218.66;;;21.68;69.87
62791;BME280;48830;53.426;10.300;2024-03-08T02:27:30;102210.81;;;21.68;69.52
62791;BME280;48830;53.426;10.300;2024-03-08T02:29:57;102216.03;;;21.68;69.56
62791;BME280;48830;53.426;10.300;2024-03-08T02:32:25;102212.56;;;21.69;69.63
62791;BME280;48830;53.426;10.300;2024-03-08T02:34:51;102219.53;;;21.67;69.40
62791;BME280;48830;53.426;10.300;2024-03-08T02:37:17;102211.72;;;21.66;69.39
62791;BME280;48830;53.426;10.300;2024-03-08T02:39:43;102212.59;;;21.65;69.72
62791;BME280;48830;53.426;10.300;2024-03-08T02:42:08;102205.63;;;21.65;69.59
62791;BME280;48830;53.426;10.300;2024-03-08T02:44:34;102207.38;;;21.63;69.01
62791;BME280;48830;53.426;10.300;2024-03-08T02:46:59;102208.25;;;21.64;69.41
62791;BME280;48830;53.426;10.300;2024-03-08T02:49:28;102209.97;;;21.65;69.39
62791;BME280;48830;53.426;10.300;2024-03-08T02:51:53;102203.88;;;21.64;69.42
62791;BME280;48830;53.426;10.300;2024-03-08T02:54:19;102204.75;;;21.65;69.66
62791;BME280;48830;53.426;10.300;2024-03-08T02:56:46;102204.78;;;21.63;69.69
62791;BME280;48830;53.426;10.300;2024-03-08T02:59:12;102198.66;;;21.64;69.44
62791;BME280;48830;53.426;10.300;2024-03-08T03:01:38;102201.25;;;21.63;69.58
62791;BME280;48830;53.426;10.300;2024-03-08T03:04:03;102192.53;;;21.62;69.47
62791;BME280;48830;53.426;10.300;2024-03-08T03:06:29;102197.78;;;21.62;69.40
62791;BME280;48830;53.426;10.300;2024-03-08T03:08:54;102200.38;;;21.62;69.39
62791;BME280;48830;53.426;10.300;2024-03-08T03:11:22;102189.91;;;21.62;69.32
62791;BME280;48830;53.426;10.300;2024-03-08T03:13:48;102181.19;;;21.62;69.35
62791;BME280;48830;53.426;10.300;2024-03-08T03:16:20;102189.94;;;21.61;69.61
62791;BME280;48830;53.426;10.300;2024-03-08T03:18:46;102190.81;;;21.61;69.40
62791;BME280;48830;53.426;10.300;2024-03-08T03:21:12;102189.06;;;21.60;69.52
62791;BME280;48830;53.426;10.300;2024-03-08T03:23:39;102183.84;;;21.60;69.43
62791;BME280;48830;53.426;10.300;2024-03-08T03:26:05;102186.47;;;21.60;69.55
62791;BME280;48830;53.426;10.300;2024-03-08T03:28:32;102182.09;;;21.61;69.66
62791;BME280;48830;53.426;10.300;2024-03-08T03:30:59;102188.22;;;21.60;69.67
62791;BME280;48830;53.426;10.300;2024-03-08T03:33:25;102186.47;;;21.60;69.55
62791;BME280;48830;53.426;10.300;2024-03-08T03:35:50;102177.72;;;21.61;69.60
62791;BME280;48830;53.426;10.300;2024-03-08T03:38:17;102183.81;;;21.62;69.37
62791;BME280;48830;53.426;10.300;2024-03-08T03:40:42;102183.84;;;21.60;69.30
62791;BME280;48830;53.426;10.300;2024-03-08T03:43:10;102182.09;;;21.61;69.48
62791;BME280;48830;53.426;10.300;2024-03-08T03:45:36;102189.06;;;21.62;69.52
62791;BME280;48830;53.426;10.300;2024-03-08T03:48:05;102182.06;;;21.62;69.44
62791;BME280;48830;53.426;10.300;2024-03-08T03:50:35;102188.19;;;21.61;69.58
62791;BME280;48830;53.426;10.300;2024-03-08T03:53:00;102189.06;;;21.62;69.66
62791;BME280;48830;53.426;10.300;2024-03-08T03:55:27;102187.31;;;21.62;69.45
62791;BME280;48830;53.426;10.300;2024-03-08T03:57:52;102182.94;;;21.64;69.48
62791;BME280;48830;53.426;10.300;2024-03-08T04:00:18;102182.94;;;21.64;69.51
62791;BME280;48830;53.426;10.300;2024-03-08T04:02:43;102185.56;;;21.64;69.37
62791;BME280;48830;53.426;10.300;2024-03-08T04:05:10;102187.28;;;21.67;69.20
62791;BME280;48830;53.426;10.300;2024-03-08T04:07:36;102186.41;;;21.66;69.43
62791;BME280;48830;53.426;10.300;2024-03-08T04:10:03;102188.13;;;21.67;69.33
62791;BME280;48830;53.426;10.300;2024-03-08T04:12:29;102183.78;;;21.69;69.18
62791;BME280;48830;53.426;10.300;2024-03-08T04:14:55;102181.16;;;21.69;69.26
62791;BME280;48830;53.426;10.300;2024-03-08T04:17:21;102180.28;;;21.69;69.17
62791;BME280;48830;53.426;10.300;2024-03-08T04:19:47;102182.88;;;21.70;68.96
62791;BME280;48830;53.426;10.300;2024-03-08T04:22:14;102175.88;;;21.72;69.19
62791;BME280;48830;53.426;10.300;2024-03-08T04:24:39;102178.50;;;21.74;69.04
62791;BME280;48830;53.426;10.300;2024-03-08T04:27:06;102175.00;;;21.75;69.04
62791;BME280;48830;53.426;10.300;2024-03-08T04:29:31;102180.25;;;21.75;69.11
62791;BME280;48830;53.426;10.300;2024-03-08T04:31:58;102170.63;;;21.75;69.05
62791;BME280;48830;53.426;10.300;2024-03-08T04:34:23;102171.47;;;21.78;69.22
62791;BME280;48830;53.426;10.300;2024-03-08T04:36:49;102170.59;;;21.79;69.07
62791;BME280;48830;53.426;10.300;2024-03-08T04:39:15;102170.59;;;21.79;68.85
62791;BME280;48830;53.426;10.300;2024-03-08T04:41:42;102174.06;;;21.81;68.64
62791;BME280;48830;53.426;10.300;2024-03-08T04:44:09;102168.81;;;21.82;69.16
62791;BME280;48830;53.426;10.300;2024-03-08T04:46:35;102168.78;;;21.84;68.66
62791;BME280;48830;53.426;10.300;2024-03-08T04:49:01;102167.06;;;21.83;68.90
62791;BME280;48830;53.426;10.300;2024-03-08T04:51:26;102160.94;;;21.85;68.71
62791;BME280;48830;53.426;10.300;2024-03-08T04:53:52;102166.16;;;21.87;68.80
62791;BME280;48830;53.426;10.300;2024-03-08T04:56:17;102155.69;;;21.87;68.55
62791;BME280;48830;53.426;10.300;2024-03-08T04:58:44;102158.31;;;21.87;68.87
62791;BME280;48830;53.426;10.300;2024-03-08T05:01:12;102158.28;;;21.88;68.27
62791;BME280;48830;53.426;10.300;2024-03-08T05:03:37;102156.50;;;21.92;68.48
62791;BME280;48830;53.426;10.300;2024-03-08T05:06:03;102147.78;;;21.93;68.94
62791;BME280;48830;53.426;10.300;2024-03-08T05:08:29;102149.50;;;21.94;68.30
62791;BME280;48830;53.426;10.300;2024-03-08T05:10:55;102151.22;;;21.95;68.28
62791;BME280;48830;53.426;10.300;2024-03-08T05:13:20;102145.13;;;21.94;68.50
62791;BME280;48830;53.426;10.300;2024-03-08T05:15:49;102148.63;;;21.96;68.42
62791;BME280;48830;53.426;10.300;2024-03-08T05:18:17;102140.72;;;21.98;68.17
62791;BME280;48830;53.426;10.300;2024-03-08T05:20:43;102137.22;;;21.99;68.46
62791;BME280;48830;53.426;10.300;2024-03-08T05:23:08;102145.94;;;21.99;68.15
62791;BME280;48830;53.426;10.300;2024-03-08T05:25:34;102140.69;;;22.02;68.19
62791;BME280;48830;53.426;10.300;2024-03-08T05:28:00;102141.59;;;22.01;68.43
62791;BME280;48830;53.426;10.300;2024-03-08T05:30:25;102134.59;;;22.02;68.08
62791;BME280;48830;53.426;10.300;2024-03-08T05:32:51;102140.66;;;22.04;68.38
62791;BME280;48830;53.426;10.300;2024-03-08T05:35:16;102140.63;;;22.06;68.29
62791;BME280;48830;53.426;10.300;2024-03-08T05:37:42;102140.66;;;22.07;67.96
62791;BME280;48830;53.426;10.300;2024-03-08T05:40:08;102142.38;;;22.08;68.03
62791;BME280;48830;53.426;10.300;2024-03-08T05:42:38;102137.13;;;22.10;67.92
62791;BME280;48830;53.426;10.300;2024-03-08T05:45:04;102145.88;;;22.10;68.25
62791;BME280;48830;53.426;10.300;2024-03-08T05:47:31;102141.47;;;22.14;67.80
62791;BME280;48830;53.426;10.300;2024-03-08T05:49:58;102139.72;;;22.14;67.85
62791;BME280;48830;53.426;10.300;2024-03-08T05:52:24;102144.06;;;22.15;67.80
62791;BME280;48830;53.426;10.300;2024-03-08T05:54:51;102139.69;;;22.16;67.56
62791;BME280;48830;53.426;10.300;2024-03-08T05:57:16;102141.41;;;22.17;67.83
62791;BME280;48830;53.426;10.300;2024-03-08T05:59:42;102143.16;;;22.19;67.75
62791;BME280;48830;53.426;10.300;2024-03-08T06:02:08;102147.50;;;22.20;67.95
62791;BME280;48830;53.426;10.300;2024-03-08T06:04:33;102148.38;;;22.22;67.75
62791;BME280;48830;53.426;10.300;2024-03-08T06:06:58;102152.72;;;22.23;67.48
62791;BME280;48830;53.426;10.300;2024-03-08T06:09:24;102143.97;;;22.24;67.66
62791;BME280;48830;53.426;10.300;2024-03-08T06:11:53;102148.31;;;22.25;67.69
62791;BME280;48830;53.426;10.300;2024-03-08T06:14:19;102146.56;;;22.26;67.57
62791;BME280;48830;53.426;10.300;2024-03-08T06:16:45;102150.91;;;22.29;67.63
62791;BME280;48830;53.426;10.300;2024-03-08T06:19:11;102154.38;;;22.31;67.42
62791;BME280;48830;53.426;10.300;2024-03-08T06:21:37;102147.41;;;22.30;67.58
62791;BME280;48830;53.426;10.300;2024-03-08T06:24:02;102146.50;;;22.32;67.48
62791;BME280;48830;53.426;10.300;2024-03-08T06:26:28;102151.72;;;22.34;67.34
62791;BME280;48830;53.426;10.300;2024-03-08T06:28:54;102143.84;;;22.35;67.02
62791;BME280;48830;53.426;10.300;2024-03-08T06:31:20;102146.44;;;22.37;67.29
62791;BME280;48830;53.426;10.300;2024-03-08T06:33:45;102140.31;;;22.38;66.93
62791;BME280;48830;53.426;10.300;2024-03-08T06:36:11;102142.91;;;22.41;67.35
62791;BME280;48830;53.426;10.300;2024-03-08T06:38:40;102132.38;;;22.44;67.00
62791;BME280;48830;53.426;10.300;2024-03-08T06:41:11;102135.00;;;22.44;66.76
62791;BME280;48830;53.426;10.300;2024-03-08T06:43:43;102133.22;;;22.46;66.85
62791;BME280;48830;53.426;10.300;2024-03-08T06:46:09;102130.56;;;22.49;67.25
62791;BME280;48830;53.426;10.300;2024-03-08T06:48:35;102132.31;;;22.50;66.54
62791;BME280;48830;53.426;10.300;2024-03-08T06:51:02;102132.28;;;22.51;66.82
62791;BME280;48830;53.426;10.300;2024-03-08T06:53:28;102125.25;;;22.53;67.08
62791;BME280;48830;53.426;10.300;2024-03-08T06:55:54;102127.88;;;22.53;66.89
62791;BME280;48830;53.426;10.300;2024-03-08T06:58:19;102127.00;;;22.56;66.50
62791;BME280;48830;53.426;10.300;2024-03-08T07:00:45;102128.72;;;22.57;66.72
62791;BME280;48830;53.426;10.300;2024-03-08T07:03:10;102123.44;;;22.59;66.60
62791;BME280;48830;53.426;10.300;2024-03-08T07:05:37;102129.56;;;22.61;66.63
62791;BME280;48830;53.426;10.300;2024-03-08T07:08:03;102134.78;;;22.62;66.87
62791;BME280;48830;53.426;10.300;2024-03-08T07:10:29;102129.47;;;22.65;66.77
62791;BME280;48830;53.426;10.300;2024-03-08T07:12:54;102134.72;;;22.65;66.70
62791;BME280;48830;53.426;10.300;2024-03-08T07:15:20;102135.59;;;22.66;66.62
62791;BME280;48830;53.426;10.300;2024-03-08T07:17:46;102127.69;;;22.69;66.34
62791;BME280;48830;53.426;10.300;2024-03-08T07:20:15;102127.66;;;22.70;66.07
62791;BME280;48830;53.426;10.300;2024-03-08T07:22:44;102128.50;;;22.72;65.93
62791;BME280;48830;53.426;10.300;2024-03-08T07:25:13;102125.88;;;22.74;66.24
62791;BME280;48830;53.426;10.300;2024-03-08T07:27:51;102133.69;;;22.75;66.28
62791;BME280;48830;53.426;10.300;2024-03-08T07:30:17;102133.69;;;22.77;65.85
62791;BME280;48830;53.426;10.300;2024-03-08T07:33:01;102128.38;;;22.82;65.98
62791;BME280;48830;53.426;10.300;2024-03-08T07:35:28;102126.56;;;22.85;66.16
62791;BME280;48830;53.426;10.300;2024-03-08T07:37:54;102122.19;;;22.86;66.00
62791;BME280;48830;53.426;10.300;2024-03-08T07:40:21;102134.41;;;22.87;65.87
62791;BME280;48830;53.426;10.300;2024-03-08T07:42:46;102128.34;;;22.88;65.35
62791;BME280;48830;53.426;10.300;2024-03-08T07:45:12;102130.00;;;22.92;65.78
62791;BME280;48830;53.426;10.300;2024-03-08T07:47:38;102130.88;;;22.92;65.70
62791;BME280;48830;53.426;10.300;2024-03-08T07:50:03;102127.38;;;22.92;65.92
62791;BME280;48830;53.426;10.300;2024-03-08T07:52:29;102127.34;;;22.95;65.62
62791;BME280;48830;53.426;10.300;2024-03-08T07:54:54;102125.59;;;22.95;65.40
62791;BME280;48830;53.426;10.300;2024-03-08T07:57:20;102122.06;;;22.98;65.66
62791;BME280;48830;53.426;10.300;2024-03-08T07:59:46;102124.66;;;22.99;65.51
62791;BME280;48830;53.426;10.300;2024-03-08T08:02:11;102120.28;;;23.00;65.89
62791;BME280;48830;53.426;10.300;2024-03-08T08:04:37;102117.63;;;23.01;65.26
62791;BME280;48830;53.426;10.300;2024-03-08T08:07:04;102114.09;;;23.02;65.52
62791;BME280;48830;53.426;10.300;2024-03-08T08:09:29;102114.09;;;23.04;65.56
62791;BME280;48830;53.426;10.300;2024-03-08T08:12:00;102113.25;;;23.03;65.51
62791;BME280;48830;53.426;10.300;2024-03-08T08:14:27;102108.81;;;23.05;65.90
62791;BME280;48830;53.426;10.300;2024-03-08T08:16:54;102116.66;;;23.07;65.46
62791;BME280;48830;53.426;10.300;2024-03-08T08:19:21;102117.53;;;23.09;65.88
62791;BME280;48830;53.426;10.300;2024-03-08T08:21:46;102117.50;;;23.11;65.65
62791;BME280;48830;53.426;10.300;2024-03-08T08:24:12;102115.72;;;23.11;65.31
62791;BME280;48830;53.426;10.300;2024-03-08T08:26:37;102116.59;;;23.12;65.59
62791;BME280;48830;53.426;10.300;2024-03-08T08:29:03;102119.19;;;23.15;65.76
62791;BME280;48830;53.426;10.300;2024-03-08T08:31:28;102120.06;;;23.15;65.40
62791;BME280;48830;53.426;10.300;2024-03-08T08:33:54;102113.91;;;23.16;64.84
62791;BME280;48830;53.426;10.300;2024-03-08T08:36:26;102109.50;;;23.18;65.60
62791;BME280;48830;53.426;10.300;2024-03-08T08:38:51;102111.25;;;23.19;65.01
62791;BME280;48830;53.426;10.300;2024-03-08T08:41:19;102114.69;;;23.21;65.48
62791;BME280;48830;53.426;10.300;2024-03-08T08:43:46;102102.47;;;23.20;65.20
62791;BME280;48830;53.426;10.300;2024-03-08T08:46:11;102105.94;;;23.22;65.51
62791;BME280;48830;53.426;10.300;2024-03-08T08:48:40;102105.94;;;23.22;65.39
62791;BME280;48830;53.426;10.300;2024-03-08T08:51:10;102105.91;;;23.25;65.23
62791;BME280;48830;53.426;10.300;2024-03-08T08:53:42;102106.72;;;23.27;64.98
62791;BME280;48830;53.426;10.300;2024-03-08T08:56:13;102101.44;;;23.29;65.20
62791;BME280;48830;53.426;10.300;2024-03-08T08:58:39;102104.06;;;23.30;65.01
62791;BME280;48830;53.426;10.300;2024-03-08T09:01:06;102097.03;;;23.33;65.26
62791;BME280;48830;53.426;10.300;2024-03-08T09:03:33;102098.75;;;23.34;65.42
62791;BME280;48830;53.426;10.300;2024-03-08T09:06:00;102096.09;;;23.35;65.41
62791;BME280;48830;53.426;10.300;2024-03-08T09:08:25;102085.59;;;23.35;65.22
62791;BME280;48830;53.426;10.300;2024-03-08T09:10:51;102092.53;;;23.39;64.67
62791;BME280;48830;53.426;10.300;2024-03-08T09:13:16;102084.69;;;23.38;64.75
62791;BME280;48830;53.426;10.300;2024-03-08T09:15:42;102084.69;;;23.38;64.62
62791;BME280;48830;53.426;10.300;2024-03-08T09:18:07;102079.38;;;23.41;65.02
62791;BME280;48830;53.426;10.300;2024-03-08T09:20:34;102074.13;;;23.41;65.03
62791;BME280;48830;53.426;10.300;2024-03-08T09:22:59;102070.63;;;23.40;65.10
62791;BME280;48830;53.426;10.300;2024-03-08T09:25:25;102079.31;;;23.44;65.03
62791;BME280;48830;53.426;10.300;2024-03-08T09:27:51;102066.22;;;23.44;65.01
62791;BME280;48830;53.426;10.300;2024-03-08T09:30:16;102057.44;;;23.45;64.91
62791;BME280;48830;53.426;10.300;2024-03-08T09:32:43;102064.41;;;23.46;64.84
62791;BME280;48830;53.426;10.300;2024-03-08T09:35:09;102062.59;;;23.49;65.90
62791;BME280;48830;53.426;10.300;2024-03-08T09:37:35;102056.50;;;23.49;66.00
62791;BME280;48830;53.426;10.300;2024-03-08T09:40:00;102058.19;;;23.53;66.37
62791;BME280;48830;53.426;10.300;2024-03-08T09:42:30;102057.22;;;23.57;66.94
62791;BME280;48830;53.426;10.300;2024-03-08T09:44:57;102055.44;;;23.59;67.73
62791;BME280;48830;53.426;10.300;2024-03-08T09:47:24;102042.22;;;23.62;67.17
62791;BME280;48830;53.426;10.300;2024-03-08T09:49:52;102039.59;;;23.65;67.39
62791;BME280;48830;53.426;10.300;2024-03-08T09:52:18;102043.03;;;23.67;68.72
62791;BME280;48830;53.426;10.300;2024-03-08T09:54:44;102038.66;;;23.69;68.42
62791;BME280;48830;53.426;10.300;2024-03-08T09:57:10;102036.84;;;23.71;68.66
62791;BME280;48830;53.426;10.300;2024-03-08T09:59:36;102025.47;;;23.71;68.28
62791;BME280;48830;53.426;10.300;2024-03-08T10:02:01;102020.19;;;23.74;69.00
62791;BME280;48830;53.426;10.300;2024-03-08T10:04:28;102021.84;;;23.78;68.80
62791;BME280;48830;53.426;10.300;2024-03-08T10:06:57;102017.53;;;23.75;67.73
62791;BME280;48830;53.426;10.300;2024-03-08T10:09:25;102016.66;;;23.75;68.26
62791;BME280;48830;53.426;10.300;2024-03-08T10:11:58;102004.31;;;23.78;68.05
62791;BME280;48830;53.426;10.300;2024-03-08T10:14:26;101997.34;;;23.79;67.75
62791;BME280;48830;53.426;10.300;2024-03-08T10:16:52;102003.44;;;23.79;67.60
62791;BME280;48830;53.426;10.300;2024-03-08T10:19:19;101994.66;;;23.80;67.94
62791;BME280;48830;53.426;10.300;2024-03-08T10:21:49;102000.81;;;23.79;67.97
62791;BME280;48830;53.426;10.300;2024-03-08T10:24:14;101986.75;;;23.82;67.62
62791;BME280;48830;53.426;10.300;2024-03-08T10:26:40;101990.31;;;23.79;67.02
62791;BME280;48830;53.426;10.300;2024-03-08T10:29:05;101984.06;;;23.83;66.97
62791;BME280;48830;53.426;10.300;2024-03-08T10:31:33;101979.72;;;23.84;67.34
62791;BME280;48830;53.426;10.300;2024-03-08T10:33:58;101975.38;;;23.81;67.00
62791;BME280;48830;53.426;10.300;2024-03-08T10:36:24;101973.63;;;23.82;67.06
62791;BME280;48830;53.426;10.300;2024-03-08T10:38:51;101969.22;;;23.82;66.96
62791;BME280;48830;53.426;10.300;2024-03-08T10:41:19;101951.69;;;23.83;66.45
62791;BME280;48830;53.426;10.300;2024-03-08T10:50:18;101944.69;;;23.83;66.32
62791;BME280;48830;53.426;10.300;2024-03-08T10:52:39;101950.84;;;23.82;66.32
62791;BME280;48830;53.426;10.300;2024-03-08T10:55:07;101941.28;;;23.78;66.45
62791;BME280;48830;53.426;10.300;2024-03-08T10:57:38;101943.06;;;23.79;66.20
62791;BME280;48830;53.426;10.300;2024-03-08T11:00:07;101942.16;;;23.80;66.41
62791;BME280;48830;53.426;10.300;2024-03-08T11:02:35;101943.00;;;23.81;65.75
62791;BME280;48830;53.426;10.300;2024-03-08T11:05:03;101936.91;;;23.80;65.92
62791;BME280;48830;53.426;10.300;2024-03-08T11:07:34;101934.31;;;23.79;65.83
62791;BME280;48830;53.426;10.300;2024-03-08T11:10:02;101929.97;;;23.76;65.81
62791;BME280;48830;53.426;10.300;2024-03-08T11:12:37;101923.06;;;23.72;65.81
62791;BME280;48830;53.426;10.300;2024-03-08T11:15:12;101925.69;;;23.72;66.17
62791;BME280;48830;53.426;10.300;2024-03-08T11:17:45;101916.94;;;23.72;66.21
62791;BME280;48830;53.426;10.300;2024-03-08T11:20:13;101917.78;;;23.72;65.63
62791;BME280;48830;53.426;10.300;2024-03-08T11:22:52;101910.78;;;23.73;65.31
62791;BME280;48830;53.426;10.300;2024-03-08T11:25:40;101903.81;;;23.72;65.62
62791;BME280;48830;53.426;10.300;2024-03-08T11:28:27;101902.00;;;23.75;65.46
62791;BME280;48830;53.426;10.300;2024-03-08T11:33:31;101882.66;;;23.79;65.02
62791;BME280;48830;53.426;10.300;2024-03-08T11:36:07;101884.28;;;23.83;65.64
62791;BME280;48830;53.426;10.300;2024-03-08T11:38:42;101880.84;;;23.81;65.22
62791;BME280;48830;53.426;10.300;2024-03-08T11:41:20;101882.50;;;23.86;65.37
62791;BME280;48830;53.426;10.300;2024-03-08T11:43:46;101881.56;;;23.88;65.26
62791;BME280;48830;53.426;10.300;2024-03-08T11:46:16;101875.47;;;23.88;65.33
62791;BME280;48830;53.426;10.300;2024-03-08T11:48:42;101873.69;;;23.90;65.19
62791;BME280;48830;53.426;10.300;2024-03-08T11:51:11;101868.34;;;23.93;64.93
62791;BME280;48830;53.426;10.300;2024-03-08T11:53:37;101863.09;;;23.93;64.59
62791;BME280;48830;53.426;10.300;2024-03-08T11:56:13;101864.66;;;24.00;64.37
62791;BME280;48830;53.426;10.300;2024-03-08T11:58:39;101852.28;;;24.05;64.50
62791;BME280;48830;53.426;10.300;2024-03-08T12:01:10;101849.66;;;24.05;64.32
62791;BME280;48830;53.426;10.300;2024-03-08T12:03:39;101857.44;;;24.09;64.36
62791;BME280;48830;53.426;10.300;2024-03-08T12:06:10;101848.63;;;24.12;64.23
62791;BME280;48830;53.426;10.300;2024-03-08T12:08:36;101851.28;;;24.10;64.31
62791;BME280;48830;53.426;10.300;2024-03-08T12:11:04;101839.84;;;24.13;64.72
62791;BME280;48830;53.426;10.300;2024-03-08T12:13:31;101838.81;;;24.19;64.02
62791;BME280;48830;53.426;10.300;2024-03-08T12:15:58;101834.44;;;24.19;64.25
62791;BME280;48830;53.426;10.300;2024-03-08T12:18:27;101830.16;;;24.15;61.10
62791;BME280;48830;53.426;10.300;2024-03-08T12:21:08;101828.31;;;24.19;62.25
62791;BME280;48830;53.426;10.300;2024-03-08T12:23:36;101822.72;;;24.32;62.54
62791;BME280;48830;53.426;10.300;2024-03-08T12:26:15;101818.28;;;24.34;62.82
62791;BME280;48830;53.426;10.300;2024-03-08T12:28:43;101816.44;;;24.40;62.70
62791;BME280;48830;53.426;10.300;2024-03-08T12:31:13;101807.56;;;24.44;62.69
62791;BME280;48830;53.426;10.300;2024-03-08T12:33:53;101795.19;;;24.49;63.38
62791;BME280;48830;53.426;10.300;2024-03-08T12:36:20;101795.19;;;24.49;62.82
62791;BME280;48830;53.426;10.300;2024-03-08T12:38:49;101793.44;;;24.48;63.23
62791;BME280;48830;53.426;10.300;2024-03-08T12:41:15;101788.09;;;24.51;62.83
62791;BME280;48830;53.426;10.300;2024-03-08T12:43:42;101778.31;;;24.56;63.27
62791;BME280;48830;53.426;10.300;2024-03-08T12:46:07;101782.56;;;24.61;62.93
62791;BME280;48830;53.426;10.300;2024-03-08T12:48:34;101770.31;;;24.60;62.81